VLG765G LEBL-GCXO
Flight info
| Callsign | VLG765G |
|---|---|
| Flight time | N/A |
| Altitude | 35000 |
| Route | SENIA DCT DORMI DCT CRETA DCT NEXAS DCT DISVU DCT ADUXO DCT CJN DCT VTB DCT INPAN DCT CRISA DCT HIJ DCT OXACA DCT OSLEP DCT MINTA DCT BAROK UN873 SAMAR |
| Aircraft | A321/M-SDE3FGHIRWY/LB1 |
Departure
| Time | N/A |
|---|---|
| Airport | Josep Tarradellas Barcelona-El Prat Airport (LEBL) |
Arrival
| Time | 2026-05-08 17:48 |
|---|---|
| Airport | Tenerife Norte-Ciudad de La Laguna Airport (GCXO) |
| Time | Latitude | Longitude | Altitude | Speed | Heading |
|---|---|---|---|---|---|
| 2026-05-08 16:09 | 35.91788 | -10.06825 | 33541 ft | 345 kts | 218° |
| 2026-05-08 16:09 | 35.89863 | -10.08577 | 33834 ft | 343 kts | 219° |
| 2026-05-08 16:10 | 35.87961 | -10.10352 | 34070 ft | 343 kts | 219° |
| 2026-05-08 16:10 | 35.86063 | -10.12140 | 34237 ft | 344 kts | 219° |
| 2026-05-08 16:10 | 35.84158 | -10.13935 | 34383 ft | 345 kts | 219° |
| 2026-05-08 16:10 | 35.82242 | -10.15731 | 34533 ft | 347 kts | 219° |
| 2026-05-08 16:11 | 35.80320 | -10.17524 | 34693 ft | 346 kts | 219° |
| 2026-05-08 16:11 | 35.78394 | -10.19312 | 34813 ft | 347 kts | 219° |
| 2026-05-08 16:11 | 35.74513 | -10.22894 | 34842 ft | 351 kts | 219° |
| 2026-05-08 16:12 | 35.70622 | -10.26479 | 34842 ft | 352 kts | 219° |
| 2026-05-08 16:12 | 35.66696 | -10.30101 | 34840 ft | 353 kts | 219° |
| 2026-05-08 16:13 | 35.62770 | -10.33724 | 34835 ft | 353 kts | 219° |
| 2026-05-08 16:13 | 35.58840 | -10.37346 | 34837 ft | 353 kts | 219° |
| 2026-05-08 16:14 | 35.54911 | -10.40968 | 34837 ft | 353 kts | 219° |
| 2026-05-08 16:14 | 35.50973 | -10.44586 | 34842 ft | 354 kts | 219° |
| 2026-05-08 16:15 | 35.47027 | -10.48195 | 34844 ft | 354 kts | 219° |
| 2026-05-08 16:15 | 35.43106 | -10.51788 | 34842 ft | 354 kts | 219° |
| 2026-05-08 16:16 | 35.39158 | -10.55402 | 34849 ft | 354 kts | 219° |
| 2026-05-08 16:16 | 35.35208 | -10.59015 | 34856 ft | 355 kts | 219° |
| 2026-05-08 16:17 | 35.31913 | -10.62021 | 34847 ft | 356 kts | 219° |
| 2026-05-08 16:17 | 35.27259 | -10.66262 | 34812 ft | 357 kts | 219° |
| 2026-05-08 16:18 | 35.23956 | -10.69264 | 34842 ft | 356 kts | 219° |
| 2026-05-08 16:18 | 35.19991 | -10.72867 | 34846 ft | 355 kts | 219° |
| 2026-05-08 16:19 | 35.16036 | -10.76463 | 34852 ft | 354 kts | 219° |
| 2026-05-08 16:19 | 35.12085 | -10.80059 | 34852 ft | 354 kts | 219° |
| 2026-05-08 16:20 | 35.08134 | -10.83639 | 34852 ft | 354 kts | 219° |
| 2026-05-08 16:20 | 35.04180 | -10.87210 | 34848 ft | 354 kts | 219° |
| 2026-05-08 16:21 | 35.00231 | -10.90780 | 34803 ft | 353 kts | 219° |
| 2026-05-08 16:21 | 34.96293 | -10.94341 | 34877 ft | 352 kts | 219° |
| 2026-05-08 16:22 | 34.92372 | -10.97872 | 34860 ft | 353 kts | 219° |
| 2026-05-08 16:22 | 34.88418 | -11.01437 | 34852 ft | 354 kts | 219° |
| 2026-05-08 16:23 | 34.84446 | -11.05004 | 34845 ft | 355 kts | 219° |
| 2026-05-08 16:23 | 34.80470 | -11.08564 | 34844 ft | 355 kts | 219° |
| 2026-05-08 16:24 | 34.76496 | -11.12130 | 34843 ft | 355 kts | 219° |
| 2026-05-08 16:24 | 34.72525 | -11.15695 | 34810 ft | 355 kts | 219° |
| 2026-05-08 16:25 | 34.68556 | -11.19247 | 34839 ft | 353 kts | 219° |
| 2026-05-08 16:25 | 34.64598 | -11.22775 | 34847 ft | 353 kts | 219° |
| 2026-05-08 16:26 | 34.60651 | -11.26309 | 34850 ft | 352 kts | 219° |
| 2026-05-08 16:26 | 34.56722 | -11.29845 | 34851 ft | 352 kts | 219° |
| 2026-05-08 16:27 | 34.52783 | -11.33387 | 34864 ft | 352 kts | 219° |
| 2026-05-08 16:27 | 34.48859 | -11.36899 | 34851 ft | 354 kts | 219° |
| 2026-05-08 16:28 | 34.44895 | -11.40441 | 34803 ft | 354 kts | 220° |
| 2026-05-08 16:28 | 34.40939 | -11.43982 | 34830 ft | 353 kts | 220° |
| 2026-05-08 16:29 | 34.36993 | -11.47515 | 34848 ft | 353 kts | 220° |
| 2026-05-08 16:29 | 34.33044 | -11.51036 | 34853 ft | 352 kts | 220° |
| 2026-05-08 16:30 | 34.29094 | -11.54542 | 34854 ft | 352 kts | 220° |
| 2026-05-08 16:30 | 34.25150 | -11.58051 | 34858 ft | 352 kts | 220° |
| 2026-05-08 16:31 | 34.21210 | -11.61561 | 34855 ft | 352 kts | 220° |
| 2026-05-08 16:31 | 34.17264 | -11.65062 | 34803 ft | 352 kts | 220° |
| 2026-05-08 16:32 | 34.13318 | -11.68550 | 34837 ft | 351 kts | 220° |
| 2026-05-08 16:32 | 34.09378 | -11.72033 | 34845 ft | 351 kts | 220° |
| 2026-05-08 16:33 | 34.05442 | -11.75519 | 34847 ft | 351 kts | 220° |
| 2026-05-08 16:33 | 34.01532 | -11.78974 | 34850 ft | 351 kts | 220° |
| 2026-05-08 16:34 | 33.97566 | -11.82468 | 34858 ft | 351 kts | 220° |
| 2026-05-08 16:34 | 33.93622 | -11.85937 | 34859 ft | 351 kts | 220° |
| 2026-05-08 16:35 | 33.89677 | -11.89400 | 34812 ft | 351 kts | 220° |
| 2026-05-08 16:35 | 33.88374 | -11.90543 | 34812 ft | 351 kts | 220° |
| 2026-05-08 16:37 | 33.86947 | -11.91958 | 34815 ft | 346 kts | 226° |
| 2026-05-08 16:37 | 33.83165 | -11.95610 | 34827 ft | 351 kts | 219° |
| 2026-05-08 16:38 | 33.79094 | -11.98880 | 34835 ft | 352 kts | 218° |
| 2026-05-08 16:38 | 33.75067 | -12.02215 | 34843 ft | 351 kts | 220° |
| 2026-05-08 16:39 | 33.71105 | -12.05658 | 34888 ft | 351 kts | 220° |
| 2026-05-08 16:39 | 33.67161 | -12.09131 | 34880 ft | 352 kts | 220° |
| 2026-05-08 16:40 | 33.63213 | -12.12591 | 34874 ft | 352 kts | 220° |
| 2026-05-08 16:40 | 33.59254 | -12.16046 | 34838 ft | 352 kts | 220° |
| 2026-05-08 16:41 | 33.55291 | -12.19493 | 34838 ft | 352 kts | 221° |
| 2026-05-08 16:42 | 33.49347 | -12.24675 | 34855 ft | 352 kts | 220° |
| 2026-05-08 16:42 | 33.45378 | -12.28119 | 34860 ft | 352 kts | 220° |
| 2026-05-08 16:43 | 33.41435 | -12.31535 | 34862 ft | 352 kts | 220° |
| 2026-05-08 16:43 | 33.37468 | -12.34978 | 34867 ft | 352 kts | 220° |
| 2026-05-08 16:44 | 33.33496 | -12.38419 | 34868 ft | 352 kts | 220° |
| 2026-05-08 16:44 | 33.29513 | -12.41865 | 34886 ft | 355 kts | 221° |
| 2026-05-08 16:45 | 33.25514 | -12.45318 | 34886 ft | 354 kts | 221° |
| 2026-05-08 16:45 | 33.21519 | -12.48765 | 34884 ft | 354 kts | 221° |
| 2026-05-08 16:46 | 33.17515 | -12.52198 | 34884 ft | 354 kts | 221° |
| 2026-05-08 16:46 | 33.13522 | -12.55633 | 34885 ft | 354 kts | 221° |
| 2026-05-08 16:47 | 33.09527 | -12.59075 | 34882 ft | 354 kts | 221° |
| 2026-05-08 16:47 | 33.05531 | -12.62505 | 34881 ft | 354 kts | 221° |
| 2026-05-08 16:48 | 33.01529 | -12.65930 | 34853 ft | 354 kts | 221° |
| 2026-05-08 16:48 | 32.97527 | -12.69363 | 34864 ft | 354 kts | 221° |
| 2026-05-08 16:49 | 32.93525 | -12.72792 | 34869 ft | 355 kts | 221° |
| 2026-05-08 16:49 | 32.89516 | -12.76213 | 34874 ft | 355 kts | 221° |
| 2026-05-08 16:50 | 32.85497 | -12.79639 | 34888 ft | 356 kts | 221° |
| 2026-05-08 16:50 | 32.81461 | -12.83074 | 34884 ft | 357 kts | 221° |
| 2026-05-08 16:51 | 32.77413 | -12.86506 | 34881 ft | 358 kts | 221° |
| 2026-05-08 16:51 | 32.73363 | -12.89941 | 34881 ft | 358 kts | 221° |
| 2026-05-08 16:52 | 32.69308 | -12.93370 | 34884 ft | 358 kts | 221° |
| 2026-05-08 16:52 | 32.65241 | -12.96798 | 34885 ft | 358 kts | 221° |
| 2026-05-08 16:53 | 32.59152 | -13.01941 | 34888 ft | 358 kts | 221° |
| 2026-05-08 16:53 | 32.55113 | -13.05341 | 34891 ft | 358 kts | 221° |
| 2026-05-08 16:54 | 32.51047 | -13.08762 | 34893 ft | 359 kts | 221° |
| 2026-05-08 16:54 | 32.46978 | -13.12182 | 34893 ft | 359 kts | 221° |
| 2026-05-08 16:55 | 32.42913 | -13.15588 | 34902 ft | 359 kts | 221° |
| 2026-05-08 16:55 | 32.38838 | -13.19013 | 34893 ft | 359 kts | 221° |
| 2026-05-08 16:56 | 32.34760 | -13.22441 | 34896 ft | 360 kts | 221° |
| 2026-05-08 16:56 | 32.30668 | -13.25864 | 34894 ft | 360 kts | 221° |
| 2026-05-08 16:57 | 32.26571 | -13.29282 | 34897 ft | 361 kts | 221° |
| 2026-05-08 16:57 | 32.22471 | -13.32700 | 34903 ft | 361 kts | 221° |
| 2026-05-08 16:58 | 32.18374 | -13.36124 | 34905 ft | 361 kts | 221° |
| 2026-05-08 16:58 | 32.14284 | -13.39537 | 34867 ft | 360 kts | 222° |
| 2026-05-08 16:59 | 32.10186 | -13.42943 | 34887 ft | 360 kts | 222° |
| 2026-05-08 16:59 | 32.06087 | -13.46342 | 34900 ft | 360 kts | 222° |
| 2026-05-08 17:00 | 32.02024 | -13.49721 | 34935 ft | 360 kts | 222° |
| 2026-05-08 17:00 | 31.97924 | -13.53123 | 34916 ft | 361 kts | 222° |
| 2026-05-08 17:01 | 31.93810 | -13.56528 | 34913 ft | 362 kts | 222° |
| 2026-05-08 17:01 | 31.89680 | -13.59939 | 34908 ft | 362 kts | 222° |
| 2026-05-08 17:02 | 31.85560 | -13.63341 | 34882 ft | 361 kts | 223° |
| 2026-05-08 17:02 | 31.81438 | -13.66741 | 34894 ft | 361 kts | 223° |
| 2026-05-08 17:03 | 31.77349 | -13.70122 | 34907 ft | 362 kts | 223° |
| 2026-05-08 17:03 | 31.73235 | -13.73516 | 34915 ft | 362 kts | 223° |
| 2026-05-08 17:04 | 31.69112 | -13.76914 | 34916 ft | 362 kts | 223° |
| 2026-05-08 17:04 | 31.64975 | -13.80308 | 34918 ft | 362 kts | 222° |
| 2026-05-08 17:05 | 31.60840 | -13.83698 | 34928 ft | 362 kts | 222° |
| 2026-05-08 17:05 | 31.56734 | -13.87057 | 34888 ft | 362 kts | 223° |
| 2026-05-08 17:06 | 31.52591 | -13.90446 | 34898 ft | 363 kts | 223° |
| 2026-05-08 17:06 | 31.48444 | -13.93839 | 34903 ft | 364 kts | 223° |
| 2026-05-08 17:07 | 31.44965 | -13.96687 | 34915 ft | 364 kts | 223° |
| 2026-05-08 17:07 | 31.40807 | -14.00087 | 34919 ft | 365 kts | 223° |
| 2026-05-08 17:08 | 31.36671 | -14.03463 | 34928 ft | 365 kts | 223° |
| 2026-05-08 17:08 | 31.32506 | -14.06860 | 34936 ft | 365 kts | 223° |
| 2026-05-08 17:09 | 31.28339 | -14.10258 | 34886 ft | 365 kts | 224° |
| 2026-05-08 17:09 | 31.24169 | -14.13671 | 34917 ft | 366 kts | 224° |
| 2026-05-08 17:10 | 31.19990 | -14.17101 | 34927 ft | 367 kts | 224° |
| 2026-05-08 17:10 | 31.15811 | -14.20519 | 34940 ft | 367 kts | 223° |
| 2026-05-08 17:11 | 31.11615 | -14.23934 | 34949 ft | 368 kts | 224° |
| 2026-05-08 17:11 | 31.07421 | -14.27355 | 34947 ft | 368 kts | 224° |
| 2026-05-08 17:12 | 31.03226 | -14.30783 | 34949 ft | 368 kts | 224° |
| 2026-05-08 17:12 | 30.99020 | -14.34206 | 34883 ft | 369 kts | 224° |
| 2026-05-08 17:13 | 30.94805 | -14.37639 | 34919 ft | 371 kts | 224° |
| 2026-05-08 17:13 | 30.90588 | -14.41055 | 34934 ft | 371 kts | 224° |
| 2026-05-08 17:14 | 30.86346 | -14.44490 | 34943 ft | 372 kts | 224° |
| 2026-05-08 17:14 | 30.82094 | -14.47927 | 34953 ft | 372 kts | 224° |
| 2026-05-08 17:15 | 30.77834 | -14.51350 | 34963 ft | 372 kts | 224° |
| 2026-05-08 17:15 | 30.73575 | -14.54770 | 34963 ft | 372 kts | 224° |
| 2026-05-08 17:16 | 30.69318 | -14.58187 | 34971 ft | 372 kts | 224° |
| 2026-05-08 17:16 | 30.65039 | -14.61636 | 34941 ft | 375 kts | 225° |
| 2026-05-08 17:17 | 30.60743 | -14.65091 | 34958 ft | 376 kts | 225° |
| 2026-05-08 17:17 | 30.56437 | -14.68542 | 34963 ft | 376 kts | 225° |
| 2026-05-08 17:18 | 30.52119 | -14.71983 | 34966 ft | 377 kts | 225° |
| 2026-05-08 17:18 | 30.47801 | -14.75432 | 34973 ft | 377 kts | 225° |
| 2026-05-08 17:19 | 30.43484 | -14.78872 | 34976 ft | 377 kts | 225° |
| 2026-05-08 17:19 | 30.39163 | -14.82322 | 34978 ft | 377 kts | 225° |
| 2026-05-08 17:20 | 30.34868 | -14.85760 | 34949 ft | 380 kts | 225° |
| 2026-05-08 17:20 | 30.30513 | -14.89230 | 34967 ft | 380 kts | 224° |
| 2026-05-08 17:21 | 30.26145 | -14.92693 | 34977 ft | 380 kts | 225° |
| 2026-05-08 17:21 | 30.21781 | -14.96160 | 34995 ft | 381 kts | 225° |
| 2026-05-08 17:22 | 30.17415 | -14.99626 | 34992 ft | 381 kts | 225° |
| 2026-05-08 17:22 | 30.13046 | -15.03088 | 34993 ft | 381 kts | 225° |
| 2026-05-08 17:23 | 30.08673 | -15.06549 | 34994 ft | 381 kts | 225° |
| 2026-05-08 17:23 | 30.04293 | -15.10021 | 34964 ft | 383 kts | 225° |
| 2026-05-08 17:24 | 29.99880 | -15.13508 | 34978 ft | 384 kts | 225° |
| 2026-05-08 17:24 | 29.95462 | -15.16990 | 34987 ft | 384 kts | 225° |
| 2026-05-08 17:25 | 29.91070 | -15.20447 | 34988 ft | 384 kts | 225° |
| 2026-05-08 17:25 | 29.86648 | -15.23925 | 34991 ft | 384 kts | 225° |
| 2026-05-08 17:26 | 29.82238 | -15.27397 | 34996 ft | 384 kts | 225° |
| 2026-05-08 17:26 | 29.77821 | -15.30870 | 34997 ft | 384 kts | 225° |
| 2026-05-08 17:27 | 29.73405 | -15.34341 | 35001 ft | 384 kts | 225° |
| 2026-05-08 17:27 | 29.68971 | -15.37812 | 35009 ft | 385 kts | 225° |
| 2026-05-08 17:28 | 29.64543 | -15.41274 | 35011 ft | 385 kts | 225° |
| 2026-05-08 17:28 | 29.60113 | -15.44733 | 35010 ft | 385 kts | 225° |
| 2026-05-08 17:29 | 29.55684 | -15.48186 | 35012 ft | 384 kts | 225° |
| 2026-05-08 17:29 | 29.51264 | -15.51639 | 35011 ft | 384 kts | 225° |
| 2026-05-08 17:30 | 29.46872 | -15.55069 | 34949 ft | 384 kts | 224° |
| 2026-05-08 17:30 | 29.42442 | -15.58517 | 34965 ft | 385 kts | 224° |
| 2026-05-08 17:31 | 29.37997 | -15.61971 | 34980 ft | 386 kts | 224° |
| 2026-05-08 17:31 | 29.33538 | -15.65441 | 34526 ft | 391 kts | 225° |
| 2026-05-08 17:32 | 29.31302 | -15.67179 | 33800 ft | 388 kts | 224° |
| 2026-05-08 17:32 | 29.29062 | -15.68916 | 33013 ft | 388 kts | 224° |
| 2026-05-08 17:32 | 29.26819 | -15.70654 | 32263 ft | 389 kts | 224° |
| 2026-05-08 17:32 | 29.24573 | -15.72396 | 31506 ft | 391 kts | 224° |
| 2026-05-08 17:33 | 29.22317 | -15.74147 | 30788 ft | 394 kts | 224° |
| 2026-05-08 17:33 | 29.20039 | -15.75914 | 30077 ft | 396 kts | 223° |
| 2026-05-08 17:33 | 29.17748 | -15.77689 | 29251 ft | 398 kts | 223° |
| 2026-05-08 17:33 | 29.15443 | -15.79474 | 28399 ft | 402 kts | 222° |
| 2026-05-08 17:34 | 29.13113 | -15.81277 | 27619 ft | 406 kts | 222° |
| 2026-05-08 17:34 | 29.10761 | -15.83092 | 26914 ft | 409 kts | 222° |
| 2026-05-08 17:34 | 29.08397 | -15.84915 | 26282 ft | 412 kts | 221° |
| 2026-05-08 17:34 | 29.06012 | -15.86750 | 25647 ft | 414 kts | 221° |
| 2026-05-08 17:35 | 29.03617 | -15.88593 | 25039 ft | 413 kts | 221° |
| 2026-05-08 17:35 | 29.01272 | -15.90394 | 24443 ft | 409 kts | 221° |
| 2026-05-08 17:35 | 28.98919 | -15.92204 | 23856 ft | 408 kts | 221° |
| 2026-05-08 17:35 | 28.96577 | -15.94010 | 23214 ft | 404 kts | 221° |
| 2026-05-08 17:36 | 28.94265 | -15.95790 | 22514 ft | 395 kts | 221° |
| 2026-05-08 17:36 | 28.92028 | -15.97501 | 21838 ft | 379 kts | 221° |
| 2026-05-08 17:36 | 28.89876 | -15.99144 | 21182 ft | 365 kts | 221° |
| 2026-05-08 17:36 | 28.87798 | -16.00732 | 20531 ft | 354 kts | 221° |
| 2026-05-08 17:37 | 28.85775 | -16.02285 | 19905 ft | 346 kts | 221° |
| 2026-05-08 17:37 | 28.83835 | -16.03778 | 19262 ft | 335 kts | 221° |
| 2026-05-08 17:37 | 28.81925 | -16.05249 | 18660 ft | 328 kts | 221° |
| 2026-05-08 17:37 | 28.80038 | -16.06703 | 18042 ft | 325 kts | 221° |
| 2026-05-08 17:38 | 28.78170 | -16.08143 | 17358 ft | 322 kts | 221° |
| 2026-05-08 17:38 | 28.76317 | -16.09567 | 16693 ft | 320 kts | 221° |
| 2026-05-08 17:38 | 28.74477 | -16.10981 | 16042 ft | 318 kts | 221° |
| 2026-05-08 17:38 | 28.72648 | -16.12382 | 15409 ft | 316 kts | 221° |
| 2026-05-08 17:39 | 28.70827 | -16.13775 | 14781 ft | 314 kts | 220° |
| 2026-05-08 17:39 | 28.69022 | -16.15152 | 14191 ft | 311 kts | 220° |
| 2026-05-08 17:39 | 28.67247 | -16.16504 | 13612 ft | 302 kts | 220° |
| 2026-05-08 17:39 | 28.65524 | -16.17816 | 12987 ft | 294 kts | 220° |
| 2026-05-08 17:40 | 28.63848 | -16.19091 | 12440 ft | 286 kts | 220° |
| 2026-05-08 17:40 | 28.62233 | -16.20322 | 11899 ft | 279 kts | 220° |
| 2026-05-08 17:40 | 28.60515 | -16.21320 | 11389 ft | 282 kts | 202° |
| 2026-05-08 17:40 | 28.58534 | -16.21499 | 10903 ft | 294 kts | 179° |
| 2026-05-08 17:41 | 28.56582 | -16.20656 | 10421 ft | 310 kts | 150° |
| 2026-05-08 17:41 | 28.55054 | -16.18882 | 9943 ft | 320 kts | 133° |
| 2026-05-08 17:41 | 28.53686 | -16.16873 | 9421 ft | 322 kts | 133° |
| 2026-05-08 17:41 | 28.52325 | -16.14853 | 8954 ft | 321 kts | 131° |
| 2026-05-08 17:42 | 28.50980 | -16.12855 | 8486 ft | 314 kts | 131° |
| 2026-05-08 17:42 | 28.49665 | -16.10908 | 8027 ft | 307 kts | 130° |
| 2026-05-08 17:42 | 28.48264 | -16.09155 | 7578 ft | 293 kts | 148° |
| 2026-05-08 17:42 | 28.46483 | -16.08219 | 7140 ft | 275 kts | 173° |
| 2026-05-08 17:43 | 28.44641 | -16.08198 | 6735 ft | 258 kts | 196° |
| 2026-05-08 17:43 | 28.42983 | -16.08829 | 6381 ft | 246 kts | 204° |
| 2026-05-08 17:43 | 28.41574 | -16.09796 | 6027 ft | 232 kts | 231° |
| 2026-05-08 17:43 | 28.40960 | -16.11389 | 5781 ft | 220 kts | 267° |
| 2026-05-08 17:44 | 28.41216 | -16.13025 | 5629 ft | 206 kts | 290° |
| 2026-05-08 17:44 | 28.41715 | -16.14499 | 5366 ft | 194 kts | 291° |
| 2026-05-08 17:44 | 28.42189 | -16.15899 | 5112 ft | 186 kts | 290° |
| 2026-05-08 17:44 | 28.42647 | -16.17266 | 4882 ft | 185 kts | 290° |
| 2026-05-08 17:45 | 28.43102 | -16.18629 | 4635 ft | 184 kts | 291° |
| 2026-05-08 17:45 | 28.43556 | -16.19991 | 4383 ft | 183 kts | 291° |
| 2026-05-08 17:45 | 28.43993 | -16.21302 | 4155 ft | 172 kts | 291° |
| 2026-05-08 17:45 | 28.44412 | -16.22562 | 3927 ft | 170 kts | 291° |
| 2026-05-08 17:46 | 28.44831 | -16.23818 | 3703 ft | 169 kts | 291° |
| 2026-05-08 17:46 | 28.45245 | -16.25063 | 3482 ft | 168 kts | 291° |
| 2026-05-08 17:46 | 28.45655 | -16.26294 | 3267 ft | 160 kts | 291° |
| 2026-05-08 17:46 | 28.46037 | -16.27443 | 3050 ft | 152 kts | 292° |
| 2026-05-08 17:47 | 28.46405 | -16.28548 | 2853 ft | 147 kts | 291° |
| 2026-05-08 17:47 | 28.46771 | -16.29630 | 2637 ft | 146 kts | 291° |
| 2026-05-08 17:47 | 28.47125 | -16.30706 | 2435 ft | 144 kts | 290° |
| 2026-05-08 17:47 | 28.47358 | -16.31405 | 2318 ft | 142 kts | 290° |
| 2026-05-08 17:48 | 28.47816 | -16.32794 | 2044 ft | 138 kts | 290° |
| 2026-05-08 17:48 | 28.48104 | -16.33666 | 2044 ft | 83 kts | 291° |
| 2026-05-08 17:48 | 28.48236 | -16.34065 | 2052 ft | 20 kts | 295° |
| 2026-05-08 17:48 | 28.48316 | -16.34161 | 2052 ft | 16 kts | 320° |
| 2026-05-08 17:49 | 28.48402 | -16.34242 | 2053 ft | 16 kts | 314° |
| 2026-05-08 17:49 | 28.48445 | -16.34345 | 2057 ft | 14 kts | 291° |
| 2026-05-08 17:49 | 28.48481 | -16.34450 | 2061 ft | 16 kts | 291° |
| 2026-05-08 17:49 | 28.48521 | -16.34573 | 2068 ft | 16 kts | 291° |
| 2026-05-08 17:50 | 28.48557 | -16.34681 | 2073 ft | 13 kts | 290° |
| 2026-05-08 17:50 | 28.48586 | -16.34766 | 2075 ft | 10 kts | 291° |
| 2026-05-08 17:50 | 28.48609 | -16.34837 | 2079 ft | 10 kts | 290° |
| 2026-05-08 17:50 | 28.48630 | -16.34904 | 2083 ft | 9 kts | 289° |
| 2026-05-08 17:51 | 28.48676 | -16.34930 | 2080 ft | 12 kts | 24° |
| 2026-05-08 17:51 | 28.48720 | -16.34851 | 2075 ft | 6 kts | 59° |
| 2026-05-08 17:51 | 28.48726 | -16.34839 | 2075 ft | 0 kts | 59° |